Time;durP1;ratioP1;P1;durP2;ratioP2;P2;SDS_P1;SDS_P2;PMS_P1;PMS_P2;Temp;Humidity;BMP_temperature;BMP_pressure;BME280_temperature;BME280_humidity;BME280_pressure;Samples;Min_cycle;Max_cycle;Signal;HPM_P1;HPM_P2
2022/10/29 00:01:21;;;;;;;7.43;3.97;;;;;;;15.24;76.57;101488.94;7399185;19;20035;-69
2022/10/29 00:03:49;;;;;;;12.10;4.55;;;;;;;15.21;76.74;101488.16;7399486;19;20031;-69
2022/10/29 00:06:18;;;;;;;18.38;4.85;;;;;;;15.18;76.82;101478.53;7399067;19;20481;-68
2022/10/29 00:08:47;;;;;;;17.20;4.35;;;;;;;15.17;76.69;101486.53;7399376;19;20032;-69
2022/10/29 00:11:17;;;;;;;13.52;4.63;;;;;;;15.15;76.75;101482.16;7396539;19;20431;-69
2022/10/29 00:13:46;;;;;;;13.07;4.80;;;;;;;15.14;76.82;101482.19;7397384;19;20014;-69
2022/10/29 00:16:19;;;;;;;12.23;4.22;;;;;;;15.10;76.99;101484.06;7396801;19;20019;-69
2022/10/29 00:18:48;;;;;;;16.10;4.73;;;;;;;15.09;76.87;101484.06;7398612;19;20022;-69
2022/10/29 00:21:19;;;;;;;11.75;4.53;;;;;;;15.05;76.90;101496.53;7398318;19;20022;-69
2022/10/29 00:23:48;;;;;;;11.30;4.60;;;;;;;15.05;77.32;101498.28;7399310;19;20031;-69
2022/10/29 00:26:18;;;;;;;12.45;4.55;;;;;;;15.02;77.18;101499.25;7398423;19;20031;-69
2022/10/29 00:28:47;;;;;;;10.75;4.93;;;;;;;15.00;77.03;101498.44;7398686;19;20023;-69
2022/10/29 00:31:23;;;;;;;10.00;3.85;;;;;;;14.99;77.09;101500.19;7396394;19;20074;-69
2022/10/29 00:33:52;;;;;;;13.23;4.43;;;;;;;14.98;77.12;101503.75;7396808;19;20011;-69
2022/10/29 00:36:23;;;;;;;14.68;5.53;;;;;;;14.97;77.16;101499.41;7396566;19;20023;-69
2022/10/29 00:38:52;;;;;;;15.25;4.65;;;;;;;14.97;77.33;101503.81;7398037;19;20018;-70
2022/10/29 00:41:25;;;;;;;8.20;4.07;;;;;;;14.92;77.36;101513.63;7397629;19;20040;-69
2022/10/29 00:44:14;;;;;;;14.15;4.75;;;;;;;14.91;77.32;101523.34;7397870;19;20011;-70
2022/10/29 00:46:49;;;;;;;10.00;4.50;;;;;;;14.90;77.45;101524.25;7397680;19;20423;-70
2022/10/29 00:49:19;;;;;;;15.73;4.57;;;;;;;14.89;77.60;101525.16;7398171;19;20023;-69
2022/10/29 00:51:49;;;;;;;12.70;4.60;;;;;;;14.89;77.50;101522.50;7395517;19;20461;-69
2022/10/29 00:54:18;;;;;;;16.85;4.97;;;;;;;14.89;77.82;101532.22;7396005;19;20505;-69
2022/10/29 00:56:50;;;;;;;15.10;4.90;;;;;;;14.88;77.92;101538.41;7397393;19;20481;-69
2022/10/29 00:59:19;;;;;;;13.30;4.30;;;;;;;14.90;77.83;101541.84;7397334;19;20018;-69
2022/10/29 01:01:51;;;;;;;10.82;4.03;;;;;;;14.90;77.63;101542.75;7395564;19;20018;-69
2022/10/29 01:04:20;;;;;;;13.77;4.43;;;;;;;14.90;77.79;101536.56;7398005;19;20022;-69
2022/10/29 01:06:50;;;;;;;17.08;4.57;;;;;;;14.92;77.79;101540.06;7397413;19;20078;-69
2022/10/29 01:09:18;;;;;;;15.13;5.30;;;;;;;14.93;77.74;101539.16;7397405;19;20010;-69
2022/10/29 01:12:02;;;;;;;16.27;5.03;;;;;;;14.94;77.95;101525.03;7395312;19;20031;-69
2022/10/29 01:14:37;;;;;;;15.93;5.53;;;;;;;14.96;77.51;101532.00;7396050;19;20024;-68
2022/10/29 01:17:22;;;;;;;19.60;5.10;;;;;;;14.97;77.61;101528.47;7397267;19;20044;-67
2022/10/29 01:20:14;;;;;;;15.55;4.82;;;;;;;14.97;77.70;101517.91;7397423;19;20081;-69
2022/10/29 01:22:48;;;;;;;14.18;4.25;;;;;;;14.96;77.75;101510.00;7395398;19;20047;-69
2022/10/29 01:25:55;;;;;;;17.02;4.68;;;;;;;14.95;77.80;101510.88;7396698;19;20481;-70
2022/10/29 01:28:33;;;;;;;18.02;5.03;;;;;;;14.95;77.53;101509.13;7397156;19;20026;-67
2022/10/29 01:31:25;;;;;;;13.00;4.45;;;;;;;14.93;77.59;101510.09;7396703;19;20023;-67
2022/10/29 01:34:01;;;;;;;13.13;4.55;;;;;;;14.91;77.86;101512.78;7395102;19;20035;-68
2022/10/29 01:36:35;;;;;;;12.18;4.57;;;;;;;14.88;77.91;101523.41;7394585;19;20011;-68
2022/10/29 01:39:10;;;;;;;17.23;5.03;;;;;;;14.86;78.20;101530.53;7396849;19;20022;-70
2022/10/29 01:41:47;;;;;;;14.82;5.03;;;;;;;14.81;78.11;101533.28;7395930;19;20018;-68
2022/10/29 01:44:27;;;;;;;18.55;5.32;;;;;;;14.78;78.62;101533.34;7396272;19;20022;-67
2022/10/29 01:47:02;;;;;;;18.23;5.32;;;;;;;14.74;78.71;101534.34;7396597;19;20036;-67
2022/10/29 01:49:36;;;;;;;11.18;5.25;;;;;;;14.72;78.42;101532.66;7396481;19;20429;-67
2022/10/29 01:52:08;;;;;;;14.80;5.65;;;;;;;14.69;78.57;101527.47;7393917;19;20019;-68
2022/10/29 01:54:41;;;;;;;14.50;4.88;;;;;;;14.66;78.94;101523.13;7395001;19;20086;-68
2022/10/29 01:57:30;;;;;;;11.97;5.17;;;;;;;14.64;79.06;101530.19;7395583;19;20510;-68
2022/10/29 02:00:02;;;;;;;17.42;4.65;;;;;;;14.61;78.81;101531.13;7394583;19;20014;-67
2022/10/29 02:02:47;;;;;;;9.88;4.72;;;;;;;14.57;79.34;101528.59;7394397;19;20074;-68
2022/10/29 02:05:27;;;;;;;10.00;4.43;;;;;;;14.54;78.94;101539.25;7395279;19;20485;-69
2022/10/29 02:08:01;;;;;;;11.25;5.00;;;;;;;14.48;79.49;101543.78;7395178;19;20031;-68
2022/10/29 02:10:43;;;;;;;12.70;5.13;;;;;;;14.42;79.93;101557.16;7395833;19;20018;-67
2022/10/29 02:13:15;;;;;;;16.73;4.95;;;;;;;14.38;80.00;101557.25;7393983;19;20031;-67
2022/10/29 02:15:48;;;;;;;10.43;5.00;;;;;;;14.34;80.16;101559.09;7394918;19;20023;-67
2022/10/29 02:18:20;;;;;;;18.08;5.32;;;;;;;14.32;80.65;101563.56;7394979;19;20018;-68
2022/10/29 02:20:50;;;;;;;11.57;5.15;;;;;;;14.32;80.74;101566.19;7394611;19;20078;-68
2022/10/29 02:23:18;;;;;;;21.20;6.03;;;;;;;14.32;80.65;101577.63;7393433;19;20022;-68
2022/10/29 02:25:47;;;;;;;10.77;5.60;;;;;;;14.33;80.91;101573.19;7394605;19;20014;-67
2022/10/29 02:28:15;;;;;;;11.27;4.70;;;;;;;14.32;80.85;101574.13;7394926;19;20018;-68
2022/10/29 02:30:44;;;;;;;15.23;5.63;;;;;;;14.31;81.01;101575.88;7392841;19;20015;-68
2022/10/29 02:33:12;;;;;;;13.32;5.30;;;;;;;14.29;80.93;101588.25;7394176;19;20382;-67
2022/10/29 02:35:50;;;;;;;15.43;5.00;;;;;;;14.26;81.19;101580.41;7392224;19;20019;-67
2022/10/29 02:38:18;;;;;;;23.05;7.05;;;;;;;14.24;81.17;101582.22;7393016;19;20031;-67
2022/10/29 02:40:47;;;;;;;15.13;5.95;;;;;;;14.21;81.57;101584.91;7392173;19;20031;-68
2022/10/29 02:43:15;;;;;;;14.52;5.07;;;;;;;14.19;81.43;101586.72;7394611;19;20018;-68
2022/10/29 02:45:43;;;;;;;19.13;5.75;;;;;;;14.17;81.74;101586.75;7392513;19;20018;-68
2022/10/29 02:48:12;;;;;;;15.63;5.38;;;;;;;14.16;82.03;101585.03;7394449;19;20023;-67
2022/10/29 02:50:43;;;;;;;14.20;4.85;;;;;;;14.15;82.30;101585.94;7394371;19;20030;-67
2022/10/29 02:53:11;;;;;;;10.00;5.05;;;;;;;14.16;82.25;101582.38;7392691;19;20018;-68
2022/10/29 02:55:40;;;;;;;16.30;5.57;;;;;;;14.17;82.16;101578.00;7393887;19;20502;-68
2022/10/29 02:58:08;;;;;;;10.75;5.10;;;;;;;14.15;82.18;101578.03;7392195;19;20048;-68
2022/10/29 03:00:37;;;;;;;11.82;4.97;;;;;;;14.16;82.34;101577.09;7392107;19;20018;-67
2022/10/29 03:03:05;;;;;;;19.10;6.00;;;;;;;14.16;82.37;101584.16;7391955;19;20022;-67
2022/10/29 03:05:34;;;;;;;14.93;5.85;;;;;;;14.15;82.58;101578.03;7391855;19;20035;-68
2022/10/29 03:08:05;;;;;;;18.77;5.28;;;;;;;14.13;82.84;101574.56;7393876;19;20019;-68
2022/10/29 03:10:34;;;;;;;15.63;5.90;;;;;;;14.15;82.89;101578.03;7395926;19;20094;-67
2022/10/29 03:13:03;;;;;;;11.73;5.05;;;;;;;14.15;82.77;101575.41;7398469;19;20109;-67
2022/10/29 03:15:31;;;;;;;24.13;14.55;;;;;;;14.16;83.04;101565.69;7398131;19;20014;-68
2022/10/29 03:18:00;;;;;;;22.83;12.20;;;;;;;14.17;82.78;101568.28;7400712;19;20379;-68
2022/10/29 03:20:28;;;;;;;15.73;6.00;;;;;;;14.18;83.07;101572.66;7400937;19;20031;-66
2022/10/29 03:22:57;;;;;;;19.10;5.75;;;;;;;14.18;83.21;101563.91;7397883;19;20498;-66
2022/10/29 03:25:28;;;;;;;16.42;6.30;;;;;;;14.18;83.49;101563.91;7398224;19;20033;-67
2022/10/29 03:27:56;;;;;;;18.38;6.13;;;;;;;14.21;83.52;101558.53;7398547;19;20015;-66
2022/10/29 03:30:25;;;;;;;16.77;6.10;;;;;;;14.22;83.38;101562.06;7400131;19;20541;-66
2022/10/29 03:32:53;;;;;;;11.82;5.32;;;;;;;14.23;83.52;101574.31;7397740;19;20032;-67
2022/10/29 03:35:22;;;;;;;15.85;6.00;;;;;;;14.24;83.72;101573.44;7397268;19;20015;-66
2022/10/29 03:37:52;;;;;;;13.43;5.88;;;;;;;14.24;83.74;101574.31;7397760;19;20022;-66
2022/10/29 03:40:21;;;;;;;15.88;5.55;;;;;;;14.28;83.75;101569.81;7400189;19;20018;-66
2022/10/29 03:42:52;;;;;;;23.25;11.57;;;;;;;14.30;83.99;101573.28;7397514;19;20018;-66
2022/10/29 03:45:20;;;;;;;19.88;10.82;;;;;;;14.32;83.56;101579.41;7401020;19;20027;-67
2022/10/29 03:47:49;;;;;;;12.57;5.60;;;;;;;14.33;83.93;101582.00;7397617;19;20022;-67
2022/10/29 03:50:17;;;;;;;13.40;5.97;;;;;;;14.34;83.88;101590.78;7399509;19;20082;-67
2022/10/29 03:52:46;;;;;;;14.23;5.25;;;;;;;14.35;83.50;101587.22;7397670;19;20019;-67
2022/10/29 03:55:14;;;;;;;13.35;5.22;;;;;;;14.34;83.67;101588.13;7398045;19;20035;-68
2022/10/29 03:57:43;;;;;;;11.02;5.35;;;;;;;14.34;83.81;101590.78;7397312;19;20032;-67
2022/10/29 04:00:15;;;;;;;15.55;5.90;;;;;;;14.34;83.60;101590.78;7396660;19;20379;-67
2022/10/29 04:02:44;;;;;;;14.82;5.57;;;;;;;14.34;83.46;101585.50;7396791;19;20019;-68
2022/10/29 04:05:12;;;;;;;15.35;5.75;;;;;;;14.36;83.43;101588.13;7399394;19;20036;-67
2022/10/29 04:07:41;;;;;;;12.88;5.57;;;;;;;14.34;83.59;101596.06;7396942;19;20078;-66
2022/10/29 04:10:10;;;;;;;11.35;5.72;;;;;;;14.32;83.55;101588.19;7399011;19;20478;-67
2022/10/29 04:12:38;;;;;;;13.25;5.18;;;;;;;14.30;83.62;101589.97;7397270;19;20039;-67
2022/10/29 04:15:08;;;;;;;15.63;5.30;;;;;;;14.29;83.77;101592.66;7397277;19;20015;-66
2022/10/29 04:17:39;;;;;;;17.92;5.57;;;;;;;14.29;83.64;101590.91;7396804;19;20022;-67
2022/10/29 04:20:09;;;;;;;11.85;4.75;;;;;;;14.29;83.71;101592.66;7399248;19;20039;-66
2022/10/29 04:22:38;;;;;;;13.38;5.75;;;;;;;14.29;83.69;101588.25;7395635;19;20039;-67
2022/10/29 04:25:07;;;;;;;11.25;5.38;;;;;;;14.30;83.97;101594.41;7396388;19;20023;-67
2022/10/29 04:27:36;;;;;;;7.70;4.55;;;;;;;14.31;84.11;101593.50;7398318;19;20085;-67
2022/10/29 04:30:04;;;;;;;9.90;5.00;;;;;;;14.31;83.81;101585.56;7398394;19;20094;-68
2022/10/29 04:32:32;;;;;;;13.32;6.40;;;;;;;14.31;83.92;101580.31;7396345;19;20025;-68
2022/10/29 04:35:03;;;;;;;10.45;5.45;;;;;;;14.31;83.84;101581.16;7396601;19;20094;-67
2022/10/29 04:37:32;;;;;;;15.23;5.35;;;;;;;14.33;84.03;101587.28;7397955;19;20558;-68
2022/10/29 04:40:00;;;;;;;16.58;5.22;;;;;;;14.34;84.09;101580.22;7398313;19;20252;-68
2022/10/29 04:42:29;;;;;;;10.65;5.10;;;;;;;14.36;84.21;101572.28;7396733;19;20078;-68
2022/10/29 04:44:57;;;;;;;14.57;6.15;;;;;;;14.38;83.93;101573.97;7396138;19;20081;-67
2022/10/29 04:47:26;;;;;;;12.90;5.43;;;;;;;14.39;84.16;101588.03;7398168;19;20070;-68
2022/10/29 04:49:54;;;;;;;14.55;5.38;;;;;;;14.40;84.18;101581.84;7395779;19;20479;-68
2022/10/29 04:52:25;;;;;;;12.18;4.88;;;;;;;14.40;84.37;101582.72;7396471;19;20070;-68
2022/10/29 04:54:54;;;;;;;10.88;5.25;;;;;;;14.41;83.96;101587.09;7397288;19;20015;-68
2022/10/29 04:57:22;;;;;;;10.55;5.30;;;;;;;14.42;83.96;101580.03;7397513;19;20434;-68
2022/10/29 04:59:51;;;;;;;17.38;5.78;;;;;;;14.41;84.08;101580.94;7397280;19;20456;-68
2022/10/29 05:02:19;;;;;;;11.45;5.30;;;;;;;14.41;83.96;101583.59;7396310;19;20176;-66
2022/10/29 05:04:47;;;;;;;10.35;4.95;;;;;;;14.39;84.01;101588.88;7397134;19;20078;-68
2022/10/29 05:07:16;;;;;;;15.52;5.13;;;;;;;14.38;83.95;101587.19;7395567;19;20074;-67
2022/10/29 05:09:47;;;;;;;11.32;5.28;;;;;;;14.36;84.06;101588.13;7397282;19;20078;-68
2022/10/29 05:12:15;;;;;;;14.00;5.85;;;;;;;14.32;84.24;101588.19;7395678;19;20078;-68
2022/10/29 05:14:44;;;;;;;16.10;6.10;;;;;;;14.29;84.18;101584.75;7395961;19;20435;-68
2022/10/29 05:17:12;;;;;;;12.48;5.88;;;;;;;14.27;84.27;101576.00;7396707;19;20082;-68
2022/10/29 05:19:41;;;;;;;11.70;5.47;;;;;;;14.24;84.31;101576.06;7394788;19;20086;-67
2022/10/29 05:22:10;;;;;;;12.88;4.93;;;;;;;14.23;84.45;101584.88;7395781;19;20082;-66
2022/10/29 05:24:38;;;;;;;11.43;6.28;;;;;;;14.20;84.33;101598.16;7396680;19;20402;-67
2022/10/29 05:27:10;;;;;;;14.35;5.88;;;;;;;14.17;84.62;101602.59;7396610;19;20077;-67
2022/10/29 05:29:38;;;;;;;11.52;5.00;;;;;;;14.12;84.65;101586.00;7394906;19;20022;-67
2022/10/29 05:32:07;;;;;;;12.60;5.70;;;;;;;14.08;84.66;101589.63;7394684;19;20023;-66
2022/10/29 05:34:35;;;;;;;10.90;5.30;;;;;;;14.04;84.70;101587.97;7391460;19;20014;-67
2022/10/29 05:37:04;;;;;;;11.10;5.50;;;;;;;14.00;85.00;101579.25;7394307;19;20011;-67
2022/10/29 05:39:32;;;;;;;15.85;6.20;;;;;;;13.99;84.98;101584.56;7396277;19;20022;-68
2022/10/29 05:42:01;;;;;;;12.55;5.10;;;;;;;13.98;85.33;101593.38;7394456;19;20035;-67
2022/10/29 05:44:32;;;;;;;14.02;5.95;;;;;;;13.94;85.37;101589.06;7396117;19;20035;-68
2022/10/29 05:47:00;;;;;;;12.30;5.57;;;;;;;13.92;85.25;101586.44;7397020;19;20022;-68
2022/10/29 05:49:28;;;;;;;16.25;5.70;;;;;;;13.90;85.79;101588.28;7396162;19;20078;-67
2022/10/29 05:51:57;;;;;;;10.63;5.20;;;;;;;13.88;85.63;101591.84;7393818;19;20545;-68
2022/10/29 05:54:25;;;;;;;14.07;5.80;;;;;;;13.87;85.69;101590.09;7395658;19;20082;-67
2022/10/29 05:56:54;;;;;;;13.75;5.70;;;;;;;13.83;85.99;101589.31;7395434;19;20082;-67
2022/10/29 05:59:22;;;;;;;14.95;6.53;;;;;;;13.79;85.96;101591.13;7395684;19;20010;-67
2022/10/29 06:01:54;;;;;;;13.07;6.00;;;;;;;13.77;86.09;101592.94;7393909;19;20083;-68
2022/10/29 06:04:23;;;;;;;16.88;6.30;;;;;;;13.75;86.41;101594.75;7394368;19;20081;-67
2022/10/29 06:06:51;;;;;;;17.48;5.97;;;;;;;13.74;86.25;101593.00;7395575;19;20094;-67
2022/10/29 06:09:20;;;;;;;12.10;5.68;;;;;;;13.73;86.50;101593.03;7395373;19;20090;-66
2022/10/29 06:11:48;;;;;;;13.07;6.45;;;;;;;13.72;86.58;101586.88;7393081;19;20451;-68
2022/10/29 06:14:17;;;;;;;12.60;6.20;;;;;;;13.72;86.76;101597.44;7395148;19;20078;-67
2022/10/29 06:16:45;;;;;;;15.93;6.60;;;;;;;13.73;86.68;101609.72;7394917;19;20086;-67
2022/10/29 06:19:16;;;;;;;13.80;6.22;;;;;;;13.73;87.07;101607.09;7394622;19;20414;-67
2022/10/29 06:21:44;;;;;;;16.73;6.95;;;;;;;13.73;86.76;101611.50;7394292;19;20078;-66
2022/10/29 06:24:13;;;;;;;19.30;6.60;;;;;;;13.74;86.91;101614.09;7394747;19;20437;-68
2022/10/29 06:26:42;;;;;;;15.00;6.90;;;;;;;13.74;87.13;101621.16;7395017;19;20035;-67
2022/10/29 06:29:10;;;;;;;17.95;6.28;;;;;;;13.73;87.22;101624.69;7394865;19;20097;-67
2022/10/29 06:31:38;;;;;;;16.35;6.47;;;;;;;13.72;87.42;101629.06;7393000;19;20082;-67
2022/10/29 06:34:07;;;;;;;15.85;6.30;;;;;;;13.73;87.25;101620.28;7392429;19;20081;-67
2022/10/29 06:36:38;;;;;;;14.15;6.32;;;;;;;13.74;87.45;101626.44;7392620;19;20432;-67
2022/10/29 06:39:06;;;;;;;17.15;6.82;;;;;;;13.75;87.40;101625.50;7393803;19;20542;-67
2022/10/29 06:41:35;;;;;;;11.50;5.97;;;;;;;13.76;87.48;101629.88;7392250;19;20074;-68
2022/10/29 06:44:03;;;;;;;20.75;6.97;;;;;;;13.78;87.79;101625.47;7392155;19;20078;-67
2022/10/29 06:46:33;;;;;;;14.45;6.38;;;;;;;13.79;87.68;101619.28;7398965;19;20026;-67
2022/10/29 06:49:01;;;;;;;10.93;6.60;;;;;;;13.81;87.42;101620.09;7402764;19;20047;-67
2022/10/29 06:51:30;;;;;;;17.27;7.28;;;;;;;13.83;87.67;101629.72;7399070;19;20032;-67
2022/10/29 06:54:01;;;;;;;12.43;6.47;;;;;;;13.85;87.84;101635.00;7401756;19;20074;-67
2022/10/29 06:56:30;;;;;;;11.18;6.65;;;;;;;13.88;87.68;101640.19;7399933;19;20014;-67
2022/10/29 06:58:58;;;;;;;14.93;6.75;;;;;;;13.89;87.85;101641.94;7401768;19;20019;-67
2022/10/29 07:01:29;;;;;;;16.58;6.28;;;;;;;13.90;87.50;101633.13;7400604;19;20022;-68
2022/10/29 07:03:57;;;;;;;11.73;6.57;;;;;;;13.93;87.66;101635.69;7401784;19;20094;-67
2022/10/29 07:06:26;;;;;;;15.95;6.50;;;;;;;13.95;87.43;101633.00;7398449;19;20426;-66
2022/10/29 07:08:54;;;;;;;15.30;7.85;;;;;;;13.96;87.53;101635.63;7398160;19;20507;-68
2022/10/29 07:11:25;;;;;;;14.32;6.50;;;;;;;13.99;87.20;101634.69;7400528;19;20018;-66
2022/10/29 07:13:54;;;;;;;16.85;7.93;;;;;;;14.04;87.23;101640.75;7398758;19;20078;-66
2022/10/29 07:16:22;;;;;;;14.25;7.88;;;;;;;14.06;87.46;101627.50;7398328;19;20010;-70
2022/10/29 07:18:51;;;;;;;17.67;7.90;;;;;;;14.09;87.11;101630.06;7400987;19;20031;-70
2022/10/29 07:21:19;;;;;;;14.52;6.32;;;;;;;14.12;86.97;101624.72;7399815;19;20082;-68
2022/10/29 07:23:47;;;;;;;15.48;7.20;;;;;;;14.14;86.58;101615.88;7400558;19;20014;-68
2022/10/29 07:26:16;;;;;;;15.60;7.53;;;;;;;14.17;86.77;101614.94;7400246;19;20515;-69
2022/10/29 07:28:47;;;;;;;13.32;7.00;;;;;;;14.20;86.73;101619.28;7397883;19;20018;-68
2022/10/29 07:31:15;;;;;;;20.83;7.65;;;;;;;14.23;86.66;101628.00;7398259;19;20083;-68
2022/10/29 07:33:44;;;;;;;16.20;8.23;;;;;;;14.25;86.39;101627.94;7399954;19;20082;-68
2022/10/29 07:36:26;;;;;;;17.17;7.25;;;;;;;14.28;86.26;101627.88;7397676;19;20099;-68
2022/10/29 07:38:54;;;;;;;15.38;7.00;;;;;;;14.32;86.35;101633.06;7397823;19;20071;-68
2022/10/29 07:41:22;;;;;;;15.73;7.57;;;;;;;14.35;86.40;101626.81;7396909;19;20477;-68
2022/10/29 07:43:53;;;;;;;15.82;7.25;;;;;;;14.40;86.16;101624.94;7399703;19;20035;-68
2022/10/29 07:46:22;;;;;;;23.58;8.25;;;;;;;14.44;86.06;101634.53;7400440;19;20074;-68
2022/10/29 07:48:50;;;;;;;17.58;7.18;;;;;;;14.48;85.94;101630.94;7396998;19;20549;-69
2022/10/29 07:51:19;;;;;;;13.75;7.47;;;;;;;14.53;85.82;101627.31;7399017;19;20074;-70
2022/10/29 07:53:47;;;;;;;16.33;7.18;;;;;;;14.57;85.70;101631.59;7397237;19;20029;-67
2022/10/29 07:56:16;;;;;;;15.63;6.75;;;;;;;14.61;85.36;101620.94;7397049;19;20045;-69
2022/10/29 07:58:44;;;;;;;14.23;7.18;;;;;;;14.65;85.18;101627.03;7397506;19;20090;-68
2022/10/29 08:01:15;;;;;;;14.98;7.00;;;;;;;14.71;85.40;101632.19;7398462;19;20083;-68
2022/10/29 08:03:43;;;;;;;17.23;7.18;;;;;;;14.76;84.90;101621.47;7398970;19;20076;-68
2022/10/29 08:06:12;;;;;;;12.95;6.22;;;;;;;14.82;85.08;101629.25;7397110;19;20022;-70
2022/10/29 08:08:40;;;;;;;13.68;6.50;;;;;;;14.88;84.57;101623.81;7399176;19;20085;-67
2022/10/29 08:11:09;;;;;;;15.88;7.00;;;;;;;14.94;84.71;101622.78;7396481;19;20036;-68
2022/10/29 08:13:37;;;;;;;16.52;6.18;;;;;;;15.01;84.63;101615.56;7396575;19;20039;-68
2022/10/29 08:16:07;;;;;;;14.90;6.10;;;;;;;15.06;84.41;101617.16;7396458;19;20086;-68
2022/10/29 08:18:38;;;;;;;15.43;6.35;;;;;;;15.14;84.13;101625.78;7398748;19;20176;-69
2022/10/29 08:21:07;;;;;;;16.58;6.18;;;;;;;15.22;84.34;101622.06;7398856;19;20090;-68
2022/10/29 08:23:35;;;;;;;17.85;6.13;;;;;;;15.29;83.81;101636.81;7398389;19;20070;-70
2022/10/29 08:26:04;;;;;;;16.40;6.38;;;;;;;15.36;83.64;101632.25;7397545;19;20088;-68
2022/10/29 08:28:32;;;;;;;10.75;6.18;;;;;;;15.42;83.70;101640.88;7397765;19;20025;-70
2022/10/29 08:31:01;;;;;;;30.15;9.60;;;;;;;15.51;83.66;101642.41;7395364;19;20061;-69
2022/10/29 08:33:29;;;;;;;23.20;8.18;;;;;;;15.58;83.70;101641.31;7398083;19;20082;-68
2022/10/29 08:36:01;;;;;;;11.07;6.30;;;;;;;15.68;83.45;101635.75;7396780;19;20074;-68
2022/10/29 08:38:29;;;;;;;23.70;8.35;;;;;;;15.77;83.23;101646.06;7398962;19;20031;-69
2022/10/29 08:41:12;;;;;;;23.58;6.38;;;;;;;15.89;83.18;101644.88;7397535;19;20097;-69
2022/10/29 08:44:16;;;;;;;18.05;7.13;;;;;;;16.02;83.05;101655.97;7398269;19;20022;-68
2022/10/29 08:46:49;;;;;;;16.08;6.50;;;;;;;16.15;82.40;101654.69;7394445;19;20406;-69
2022/10/29 08:49:20;;;;;;;21.02;7.13;;;;;;;16.25;82.09;101657.91;7398113;19;20074;-68
2022/10/29 08:51:58;;;;;;;17.88;6.32;;;;;;;16.33;82.13;101658.56;7395514;19;20026;-68
2022/10/29 08:54:33;;;;;;;19.83;6.30;;;;;;;16.44;82.13;101658.19;7397120;19;20071;-67
2022/10/29 08:57:06;;;;;;;18.10;7.10;;;;;;;16.52;81.56;101650.03;7396589;19;20031;-69
2022/10/29 08:59:39;;;;;;;16.42;5.57;;;;;;;16.60;81.90;101655.94;7397168;19;20075;-68
2022/10/29 09:02:16;;;;;;;23.35;6.32;;;;;;;16.67;81.34;101641.56;7395940;19;20074;-68
2022/10/29 09:04:45;;;;;;;135.05;87.55;;;;;;;16.73;81.11;101649.31;7397440;19;20086;-69
2022/10/29 09:07:43;;;;;;;128.73;90.32;;;;;;;16.83;80.88;101649.00;7394972;19;20502;-68
2022/10/29 09:10:23;;;;;;;97.18;60.40;;;;;;;16.89;80.80;101646.16;7394456;19;20089;-68
2022/10/29 09:13:10;;;;;;;82.82;58.03;;;;;;;16.96;80.54;101646.81;7394841;19;20082;-69
2022/10/29 09:16:00;;;;;;;48.00;30.67;;;;;;;17.04;80.44;101652.75;7396414;19;20015;-67
2022/10/29 09:18:50;;;;;;;42.15;21.25;;;;;;;17.10;80.30;101642.78;7396793;19;20085;-67
2022/10/29 09:21:30;;;;;;;28.92;12.65;;;;;;;17.18;79.72;101650.47;7395013;19;20035;-68
2022/10/29 09:24:16;;;;;;;18.60;9.57;;;;;;;17.24;79.12;101652.91;7395227;19;20074;-67
2022/10/29 09:26:58;;;;;;;27.27;14.75;;;;;;;17.30;79.26;101659.81;7395292;19;20090;-68
2022/10/29 09:29:44;;;;;;;35.85;22.67;;;;;;;17.34;79.07;101652.56;7394410;19;20399;-67
2022/10/29 09:32:17;;;;;;;22.42;10.73;;;;;;;17.38;78.79;101655.06;7394656;19;20018;-67
2022/10/29 09:34:49;;;;;;;16.50;8.98;;;;;;;17.42;78.85;101662.00;7394743;19;20086;-68
2022/10/29 09:37:19;;;;;;;26.85;13.50;;;;;;;17.46;78.59;101654.78;7393842;19;20370;-67
2022/10/29 09:39:51;;;;;;;18.38;12.30;;;;;;;17.51;78.75;101649.31;7394323;19;20081;-67
2022/10/29 09:42:25;;;;;;;25.45;14.68;;;;;;;17.56;78.20;101647.38;7394010;19;20084;-68
2022/10/29 09:44:57;;;;;;;20.90;12.60;;;;;;;17.61;78.15;101632.16;7395296;19;20086;-68
2022/10/29 09:47:38;;;;;;;15.82;7.95;;;;;;;17.66;78.00;101630.19;7395535;19;20085;-68
2022/10/29 09:50:22;;;;;;;21.33;5.90;;;;;;;17.72;78.24;101624.66;7395154;19;20541;-68
2022/10/29 09:52:51;;;;;;;13.32;5.95;;;;;;;17.77;78.33;101631.56;7393812;19;20082;-68
2022/10/29 09:55:26;;;;;;;14.45;5.85;;;;;;;17.83;77.75;101639.28;7393870;19;20039;-69
2022/10/29 09:57:57;;;;;;;18.67;7.50;;;;;;;17.85;77.47;101633.00;7393860;19;20082;-66
2022/10/29 10:00:27;;;;;;;15.48;7.00;;;;;;;17.88;77.19;101637.31;7394353;19;20031;-66
2022/10/29 10:03:01;;;;;;;17.65;6.15;;;;;;;17.89;77.44;101625.78;7393688;19;20498;-68
2022/10/29 10:05:31;;;;;;;15.10;5.90;;;;;;;17.92;77.12;101625.69;7394326;19;20022;-68
2022/10/29 10:08:11;;;;;;;15.70;6.45;;;;;;;17.95;77.18;101627.41;7394066;19;20073;-67
2022/10/29 10:10:53;;;;;;;19.30;6.63;;;;;;;17.97;77.30;101621.09;7395882;19;20089;-67
2022/10/29 10:13:23;;;;;;;14.75;6.25;;;;;;;18.01;76.99;101625.34;7393826;19;20025;-67
2022/10/29 10:15:54;;;;;;;16.08;6.05;;;;;;;18.04;76.82;101625.22;7393461;19;20079;-68
2022/10/29 10:18:25;;;;;;;11.38;5.78;;;;;;;18.08;76.58;101618.00;7395262;19;20070;-68
2022/10/29 10:21:07;;;;;;;14.45;6.78;;;;;;;18.14;76.47;101630.19;7393427;19;20073;-67
2022/10/29 10:23:45;;;;;;;17.25;7.95;;;;;;;18.18;76.94;101626.47;7394609;19;20078;-67
2022/10/29 10:26:38;;;;;;;18.63;7.65;;;;;;;18.20;76.19;101617.53;7393354;19;20074;-69
2022/10/29 10:29:18;;;;;;;20.45;9.02;;;;;;;18.22;76.19;101612.16;7395198;19;20022;-66
2022/10/29 10:31:47;;;;;;;33.40;20.48;;;;;;;18.24;76.70;101611.16;7392797;19;20087;-68
2022/10/29 10:34:18;;;;;;;23.48;13.23;;;;;;;18.27;76.38;101617.28;7394504;19;20086;-67
2022/10/29 10:36:52;;;;;;;21.10;10.45;;;;;;;18.27;76.21;101620.78;7392104;19;20102;-67
2022/10/29 10:39:22;;;;;;;;;;;;;;;18.31;76.28;101627.72;7393192;19;20026;-67
2022/10/29 10:41:54;;;;;;;15.73;9.50;;;;;;;18.34;75.86;101624.09;7391294;19;20339;-67
2022/10/29 10:44:24;;;;;;;16.17;7.68;;;;;;;18.36;76.31;101609.81;7392476;19;20014;-68
2022/10/29 10:46:56;;;;;;;21.65;8.98;;;;;;;18.39;75.82;101608.81;7394222;19;20070;-67
2022/10/29 10:49:33;;;;;;;21.77;8.63;;;;;;;18.42;75.69;101608.69;7394724;19;20083;-67
2022/10/29 10:52:05;;;;;;;16.65;8.60;;;;;;;18.47;75.40;101616.47;7392131;19;20025;-67
2022/10/29 10:54:38;;;;;;;23.00;10.40;;;;;;;18.53;75.14;101613.56;7392139;19;20078;-68
2022/10/29 10:57:22;;;;;;;17.85;7.70;;;;;;;18.58;74.46;101613.34;7393610;19;20095;-68
2022/10/29 10:59:59;;;;;;;21.70;8.65;;;;;;;18.62;74.59;101602.53;7391228;19;20486;-67
2022/10/29 11:02:35;;;;;;;13.77;6.88;;;;;;;18.67;74.38;101600.56;7391839;19;20046;-66
2022/10/29 11:05:16;;;;;;;18.98;7.22;;;;;;;18.72;74.41;101595.06;7394567;19;20018;-67
2022/10/29 11:07:49;;;;;;;20.45;6.93;;;;;;;18.79;74.03;101600.97;7393402;19;20025;-68
2022/10/29 11:10:20;;;;;;;15.13;6.63;;;;;;;18.85;73.41;101595.38;7392688;19;20006;-65
2022/10/29 11:12:57;;;;;;;13.70;6.40;;;;;;;18.88;72.67;101585.50;7391097;19;20032;-67
2022/10/29 11:15:36;;;;;;;13.57;6.25;;;;;;;18.95;72.74;101582.59;7391117;19;20085;-67
2022/10/29 11:18:12;;;;;;;21.00;6.63;;;;;;;19.00;72.88;101577.94;7392619;19;20086;-68
2022/10/29 11:20:45;;;;;;;10.85;5.18;;;;;;;19.04;72.67;101568.88;7393979;19;20025;-67
2022/10/29 11:23:31;;;;;;;15.95;5.53;;;;;;;19.11;72.43;101559.72;7393304;19;20074;-68
2022/10/29 11:26:09;;;;;;;19.95;6.03;;;;;;;19.17;72.24;101559.44;7391304;19;20545;-68
2022/10/29 11:28:50;;;;;;;13.77;5.78;;;;;;;19.23;72.30;101560.09;7393877;19;20019;-66
2022/10/29 11:31:23;;;;;;;16.45;6.60;;;;;;;19.26;72.11;101551.97;7392472;19;20018;-67
2022/10/29 11:33:59;;;;;;;13.57;6.93;;;;;;;19.32;71.98;101549.91;7395717;19;20018;-66
2022/10/29 11:36:31;;;;;;;19.08;6.55;;;;;;;19.34;71.43;101549.81;7396852;19;20086;-66
2022/10/29 11:39:05;;;;;;;9.25;4.93;;;;;;;19.38;71.70;101556.72;7399971;19;20082;-67